sensor_id;sensor_type;location;lat;lon;timestamp;pressure;altitude;pressure_sealevel;temperature;humidity
5651;BME280;40241;52.684;9.758;2023-06-24T00:02:24;102179.41;;;19.21;63.37
5651;BME280;40241;52.684;9.758;2023-06-24T00:04:50;102173.34;;;19.17;63.19
5651;BME280;40241;52.684;9.758;2023-06-24T00:07:17;102161.94;;;19.15;62.90
5651;BME280;40241;52.684;9.758;2023-06-24T00:09:42;102179.44;;;19.10;62.92
5651;BME280;40241;52.684;9.758;2023-06-24T00:12:07;102171.84;;;19.05;63.09
5651;BME280;40241;52.684;9.758;2023-06-24T00:14:33;102189.91;;;18.99;63.18
5651;BME280;40241;52.684;9.758;2023-06-24T00:16:58;102181.03;;;18.95;63.17
5651;BME280;40241;52.684;9.758;2023-06-24T00:19:25;102179.28;;;18.92;63.24
5651;BME280;40241;52.684;9.758;2023-06-24T00:21:52;102183.09;;;18.89;63.38
5651;BME280;40241;52.684;9.758;2023-06-24T00:24:21;102183.88;;;18.84;63.33
5651;BME280;40241;52.684;9.758;2023-06-24T00:26:54;102181.84;;;18.79;63.39
5651;BME280;40241;52.684;9.758;2023-06-24T00:29:19;102170.50;;;18.71;63.35
5651;BME280;40241;52.684;9.758;2023-06-24T00:31:45;102175.59;;;18.67;63.25
5651;BME280;40241;52.684;9.758;2023-06-24T00:34:10;102192.56;;;18.63;63.36
5651;BME280;40241;52.684;9.758;2023-06-24T00:36:35;102186.50;;;18.59;63.25
5651;BME280;40241;52.684;9.758;2023-06-24T00:39:02;102211.09;;;18.55;63.30
5651;BME280;40241;52.684;9.758;2023-06-24T00:41:29;102198.16;;;18.52;63.24
5651;BME280;40241;52.684;9.758;2023-06-24T00:43:55;102199.69;;;18.48;63.44
5651;BME280;40241;52.684;9.758;2023-06-24T00:46:23;102204.50;;;18.42;63.36
5651;BME280;40241;52.684;9.758;2023-06-24T00:48:51;102244.78;;;18.41;63.32
5651;BME280;40241;52.684;9.758;2023-06-24T00:51:16;102221.22;;;18.31;63.43
5651;BME280;40241;52.684;9.758;2023-06-24T00:53:42;102197.94;;;18.34;63.55
5651;BME280;40241;52.684;9.758;2023-06-24T00:56:07;102209.59;;;18.32;63.40
5651;BME280;40241;52.684;9.758;2023-06-24T00:58:33;102209.84;;;18.34;63.49
5651;BME280;40241;52.684;9.758;2023-06-24T01:01:00;102191.84;;;18.30;63.29
5651;BME280;40241;52.684;9.758;2023-06-24T01:03:27;102210.88;;;18.26;63.17
5651;BME280;40241;52.684;9.758;2023-06-24T01:05:54;102188.31;;;18.24;63.34
5651;BME280;40241;52.684;9.758;2023-06-24T01:08:19;102190.34;;;18.18;63.30
5651;BME280;40241;52.684;9.758;2023-06-24T01:10:48;102198.47;;;18.10;63.36
5651;BME280;40241;52.684;9.758;2023-06-24T01:13:15;102207.81;;;18.07;63.33
5651;BME280;40241;52.684;9.758;2023-06-24T01:15:40;102200.72;;;18.01;63.39
5651;BME280;40241;52.684;9.758;2023-06-24T01:26:32;102197.94;;;17.78;63.58
5651;BME280;40241;52.684;9.758;2023-06-24T01:32:09;102199.19;;;17.72;63.42
5651;BME280;40241;52.684;9.758;2023-06-24T01:34:42;102217.41;;;17.67;63.43
5651;BME280;40241;52.684;9.758;2023-06-24T01:37:26;102207.81;;;17.68;63.50
5651;BME280;40241;52.684;9.758;2023-06-24T01:40:00;102213.13;;;17.66;63.58
5651;BME280;40241;52.684;9.758;2023-06-24T01:42:36;102210.56;;;17.63;63.55
5651;BME280;40241;52.684;9.758;2023-06-24T01:45:04;102204.00;;;17.60;63.52
5651;BME280;40241;52.684;9.758;2023-06-24T01:47:31;102225.47;;;17.54;63.34
5651;BME280;40241;52.684;9.758;2023-06-24T01:49:59;102201.19;;;17.49;63.47
5651;BME280;40241;52.684;9.758;2023-06-24T01:52:27;102197.38;;;17.47;63.58
5651;BME280;40241;52.684;9.758;2023-06-24T01:54:55;102202.16;;;17.46;63.59
5651;BME280;40241;52.684;9.758;2023-06-24T01:57:22;102201.66;;;17.42;63.46
5651;BME280;40241;52.684;9.758;2023-06-24T01:59:48;102242.38;;;17.40;63.50
5651;BME280;40241;52.684;9.758;2023-06-24T02:02:17;102206.94;;;17.35;63.52
5651;BME280;40241;52.684;9.758;2023-06-24T02:04:45;102209.47;;;17.27;63.75
5651;BME280;40241;52.684;9.758;2023-06-24T02:07:11;102213.75;;;17.22;63.60
5651;BME280;40241;52.684;9.758;2023-06-24T02:09:39;102220.56;;;17.21;63.56
5651;BME280;40241;52.684;9.758;2023-06-24T02:12:06;102227.88;;;17.19;63.57
5651;BME280;40241;52.684;9.758;2023-06-24T02:14:34;102216.22;;;17.15;63.72
5651;BME280;40241;52.684;9.758;2023-06-24T02:17:03;102210.19;;;17.16;63.72
5651;BME280;40241;52.684;9.758;2023-06-24T02:19:30;102216.75;;;17.13;63.73
5651;BME280;40241;52.684;9.758;2023-06-24T02:21:57;102211.44;;;17.10;63.65
5651;BME280;40241;52.684;9.758;2023-06-24T02:24:25;102204.84;;;17.07;63.76
5651;BME280;40241;52.684;9.758;2023-06-24T02:26:53;102209.38;;;17.05;63.62
5651;BME280;40241;52.684;9.758;2023-06-24T02:29:19;102225.06;;;17.08;63.72
5651;BME280;40241;52.684;9.758;2023-06-24T02:31:46;102219.00;;;17.09;63.92
5651;BME280;40241;52.684;9.758;2023-06-24T02:34:12;102234.16;;;17.08;63.71
5651;BME280;40241;52.684;9.758;2023-06-24T02:36:37;102216.97;;;17.04;63.67
5651;BME280;40241;52.684;9.758;2023-06-24T02:39:03;102223.03;;;17.03;63.36
5651;BME280;40241;52.684;9.758;2023-06-24T02:41:29;102207.56;;;16.96;63.11
5651;BME280;40241;52.684;9.758;2023-06-24T02:43:54;102215.66;;;16.94;63.42
5651;BME280;40241;52.684;9.758;2023-06-24T02:46:20;102222.19;;;16.91;63.69
5651;BME280;40241;52.684;9.758;2023-06-24T02:48:48;102252.03;;;16.91;63.55
5651;BME280;40241;52.684;9.758;2023-06-24T02:51:15;102228.50;;;16.86;63.67
5651;BME280;40241;52.684;9.758;2023-06-24T02:53:41;102226.72;;;16.89;63.66
5651;BME280;40241;52.684;9.758;2023-06-24T02:56:08;102231.31;;;16.92;63.59
5651;BME280;40241;52.684;9.758;2023-06-24T02:58:36;102223.97;;;16.89;63.47
5651;BME280;40241;52.684;9.758;2023-06-24T03:01:03;102226.47;;;16.87;63.37
5651;BME280;40241;52.684;9.758;2023-06-24T03:03:29;102233.53;;;16.82;63.32
5651;BME280;40241;52.684;9.758;2023-06-24T03:05:55;102225.69;;;16.75;63.45
5651;BME280;40241;52.684;9.758;2023-06-24T03:08:24;102241.06;;;16.71;63.55
5651;BME280;40241;52.684;9.758;2023-06-24T03:10:51;102219.53;;;16.66;63.62
5651;BME280;40241;52.684;9.758;2023-06-24T03:13:16;102240.78;;;16.69;63.58
5651;BME280;40241;52.684;9.758;2023-06-24T03:15:42;102226.09;;;16.63;63.57
5651;BME280;40241;52.684;9.758;2023-06-24T03:18:07;102237.19;;;16.63;63.70
5651;BME280;40241;52.684;9.758;2023-06-24T03:20:32;102226.84;;;16.58;63.45
5651;BME280;40241;52.684;9.758;2023-06-24T03:23:07;102244.50;;;16.60;63.63
5651;BME280;40241;52.684;9.758;2023-06-24T03:25:34;102238.44;;;16.56;63.74
5651;BME280;40241;52.684;9.758;2023-06-24T03:27:59;102267.25;;;16.59;63.57
5651;BME280;40241;52.684;9.758;2023-06-24T03:30:32;102230.84;;;16.57;63.51
5651;BME280;40241;52.684;9.758;2023-06-24T03:32:58;102230.84;;;16.57;63.57
5651;BME280;40241;52.684;9.758;2023-06-24T03:35:23;102257.09;;;16.50;63.65
5651;BME280;40241;52.684;9.758;2023-06-24T03:37:49;102236.91;;;16.55;63.48
5651;BME280;40241;52.684;9.758;2023-06-24T03:40:14;102217.91;;;16.48;63.47
5651;BME280;40241;52.684;9.758;2023-06-24T03:42:40;102239.16;;;16.51;63.64
5651;BME280;40241;52.684;9.758;2023-06-24T03:45:05;102230.34;;;16.53;63.69
5651;BME280;40241;52.684;9.758;2023-06-24T03:47:31;102234.34;;;16.52;63.40
5651;BME280;40241;52.684;9.758;2023-06-24T03:49:56;102251.03;;;16.52;63.71
5651;BME280;40241;52.684;9.758;2023-06-24T03:52:22;102233.78;;;16.47;63.29
5651;BME280;40241;52.684;9.758;2023-06-24T03:54:47;102247.94;;;16.49;63.56
5651;BME280;40241;52.684;9.758;2023-06-24T03:57:13;102230.50;;;16.49;63.52
5651;BME280;40241;52.684;9.758;2023-06-24T03:59:38;102241.09;;;16.45;63.59
5651;BME280;40241;52.684;9.758;2023-06-24T04:02:05;102247.44;;;16.45;63.83
5651;BME280;40241;52.684;9.758;2023-06-24T04:04:36;102254.84;;;16.54;63.80
5651;BME280;40241;52.684;9.758;2023-06-24T04:07:02;102246.00;;;16.56;63.61
5651;BME280;40241;52.684;9.758;2023-06-24T04:09:29;102248.06;;;16.61;63.81
5651;BME280;40241;52.684;9.758;2023-06-24T04:11:54;102252.84;;;16.60;63.72
5651;BME280;40241;52.684;9.758;2023-06-24T04:14:19;102244.75;;;16.57;63.79
5651;BME280;40241;52.684;9.758;2023-06-24T04:16:45;102261.69;;;16.59;63.73
5651;BME280;40241;52.684;9.758;2023-06-24T04:19:10;102264.19;;;16.57;63.87
5651;BME280;40241;52.684;9.758;2023-06-24T04:21:36;102269.25;;;16.58;63.97
5651;BME280;40241;52.684;9.758;2023-06-24T04:24:02;102272.56;;;16.62;64.18
5651;BME280;40241;52.684;9.758;2023-06-24T04:26:28;102269.31;;;16.64;64.13
5651;BME280;40241;52.684;9.758;2023-06-24T04:28:53;102265.25;;;16.65;64.16
5651;BME280;40241;52.684;9.758;2023-06-24T04:31:19;102262.28;;;16.74;64.22
5651;BME280;40241;52.684;9.758;2023-06-24T04:33:44;102254.72;;;16.74;64.04
5651;BME280;40241;52.684;9.758;2023-06-24T04:36:09;102250.97;;;16.77;64.12
5651;BME280;40241;52.684;9.758;2023-06-24T04:38:34;102261.31;;;16.82;63.97
5651;BME280;40241;52.684;9.758;2023-06-24T04:41:00;102256.03;;;16.84;64.19
5651;BME280;40241;52.684;9.758;2023-06-24T04:43:26;102264.38;;;16.84;64.00
5651;BME280;40241;52.684;9.758;2023-06-24T04:45:53;102263.13;;;16.85;64.12
5651;BME280;40241;52.684;9.758;2023-06-24T04:48:20;102261.63;;;16.90;64.13
5651;BME280;40241;52.684;9.758;2023-06-24T04:50:45;102283.16;;;16.95;64.25
5651;BME280;40241;52.684;9.758;2023-06-24T04:53:11;102271.03;;;16.98;64.28
5651;BME280;40241;52.684;9.758;2023-06-24T04:55:36;102268.28;;;17.03;64.26
5651;BME280;40241;52.684;9.758;2023-06-24T04:58:01;102260.69;;;17.04;64.25
5651;BME280;40241;52.684;9.758;2023-06-24T05:00:27;102266.81;;;17.13;64.16
5651;BME280;40241;52.684;9.758;2023-06-24T05:02:52;102260.25;;;17.16;64.22
5651;BME280;40241;52.684;9.758;2023-06-24T05:05:17;102303.22;;;17.15;64.28
5651;BME280;40241;52.684;9.758;2023-06-24T05:07:44;102262.06;;;17.25;64.44
5651;BME280;40241;52.684;9.758;2023-06-24T05:10:09;102269.16;;;17.32;64.51
5651;BME280;40241;52.684;9.758;2023-06-24T05:12:34;102260.59;;;17.41;64.46
5651;BME280;40241;52.684;9.758;2023-06-24T05:15:00;102259.84;;;17.40;64.46
5651;BME280;40241;52.684;9.758;2023-06-24T05:17:25;102269.75;;;17.52;64.50
5651;BME280;40241;52.684;9.758;2023-06-24T05:19:50;102269.28;;;17.59;64.56
5651;BME280;40241;52.684;9.758;2023-06-24T05:22:16;102280.41;;;17.65;64.58
5651;BME280;40241;52.684;9.758;2023-06-24T05:24:41;102267.03;;;17.74;64.70
5651;BME280;40241;52.684;9.758;2023-06-24T05:27:07;102278.44;;;17.82;64.66
5651;BME280;40241;52.684;9.758;2023-06-24T05:29:33;102273.38;;;17.86;64.82
5651;BME280;40241;52.684;9.758;2023-06-24T05:31:59;102273.16;;;17.95;64.90
5651;BME280;40241;52.684;9.758;2023-06-24T05:34:26;102267.31;;;17.98;64.67
5651;BME280;40241;52.684;9.758;2023-06-24T05:36:52;102281.25;;;18.10;64.92
5651;BME280;40241;52.684;9.758;2023-06-24T05:39:17;102285.56;;;18.22;64.92
5651;BME280;40241;52.684;9.758;2023-06-24T05:41:42;102289.88;;;18.34;65.11
5651;BME280;40241;52.684;9.758;2023-06-24T05:44:09;102282.03;;;18.43;65.11
5651;BME280;40241;52.684;9.758;2023-06-24T05:46:37;102279.75;;;18.53;64.99
5651;BME280;40241;52.684;9.758;2023-06-24T05:49:03;102296.75;;;18.60;65.21
5651;BME280;40241;52.684;9.758;2023-06-24T05:51:28;102287.59;;;18.71;65.31
5651;BME280;40241;52.684;9.758;2023-06-24T05:53:54;102279.72;;;18.81;65.34
5651;BME280;40241;52.684;9.758;2023-06-24T05:56:20;102284.00;;;18.93;65.26
5651;BME280;40241;52.684;9.758;2023-06-24T05:58:46;102271.81;;;19.01;65.31
5651;BME280;40241;52.684;9.758;2023-06-24T06:01:12;102279.63;;;19.14;65.25
5651;BME280;40241;52.684;9.758;2023-06-24T06:03:37;102284.16;;;19.22;65.25
5651;BME280;40241;52.684;9.758;2023-06-24T06:06:02;102276.78;;;19.30;65.21
5651;BME280;40241;52.684;9.758;2023-06-24T06:08:28;102259.78;;;19.39;65.26
5651;BME280;40241;52.684;9.758;2023-06-24T06:10:53;102290.69;;;19.47;65.18
5651;BME280;40241;52.684;9.758;2023-06-24T06:13:19;102268.03;;;19.56;65.02
5651;BME280;40241;52.684;9.758;2023-06-24T06:15:44;102266.75;;;19.63;65.07
5651;BME280;40241;52.684;9.758;2023-06-24T06:18:09;102265.66;;;19.71;65.00
5651;BME280;40241;52.684;9.758;2023-06-24T06:20:35;102284.91;;;19.80;65.15
5651;BME280;40241;52.684;9.758;2023-06-24T06:23:00;102269.09;;;19.88;64.80
5651;BME280;40241;52.684;9.758;2023-06-24T06:25:26;102265.78;;;19.90;64.83
5651;BME280;40241;52.684;9.758;2023-06-24T06:27:51;102268.03;;;19.97;65.00
5651;BME280;40241;52.684;9.758;2023-06-24T06:30:16;102267.25;;;20.02;64.92
5651;BME280;40241;52.684;9.758;2023-06-24T06:32:42;102267.19;;;20.07;64.85
5651;BME280;40241;52.684;9.758;2023-06-24T06:35:08;102269.72;;;20.11;64.97
5651;BME280;40241;52.684;9.758;2023-06-24T06:37:33;102282.38;;;20.17;64.99
5651;BME280;40241;52.684;9.758;2023-06-24T06:39:59;102272.38;;;20.28;64.89
5651;BME280;40241;52.684;9.758;2023-06-24T06:42:24;102265.94;;;20.38;64.86
5651;BME280;40241;52.684;9.758;2023-06-24T06:44:49;102258.28;;;20.44;64.71
5651;BME280;40241;52.684;9.758;2023-06-24T06:47:15;102261.31;;;20.46;64.56
5651;BME280;40241;52.684;9.758;2023-06-24T06:49:41;102252.84;;;20.52;64.41
5651;BME280;40241;52.684;9.758;2023-06-24T06:52:07;102277.38;;;20.64;64.58
5651;BME280;40241;52.684;9.758;2023-06-24T06:54:32;102264.63;;;20.69;64.03
5651;BME280;40241;52.684;9.758;2023-06-24T06:57:02;102258.75;;;20.72;64.37
5651;BME280;40241;52.684;9.758;2023-06-24T06:59:28;102274.25;;;20.73;64.24
5651;BME280;40241;52.684;9.758;2023-06-24T07:01:54;102273.22;;;20.76;64.12
5651;BME280;40241;52.684;9.758;2023-06-24T07:04:19;102280.50;;;20.85;64.18
5651;BME280;40241;52.684;9.758;2023-06-24T07:06:44;102290.34;;;20.91;63.70
5651;BME280;40241;52.684;9.758;2023-06-24T07:09:10;102295.34;;;20.99;63.45
5651;BME280;40241;52.684;9.758;2023-06-24T07:11:35;102317.22;;;21.00;63.04
5651;BME280;40241;52.684;9.758;2023-06-24T07:14:01;102297.75;;;21.13;63.16
5651;BME280;40241;52.684;9.758;2023-06-24T07:16:26;102282.41;;;21.20;62.91
5651;BME280;40241;52.684;9.758;2023-06-24T07:18:51;102293.59;;;21.20;62.98
5651;BME280;40241;52.684;9.758;2023-06-24T07:21:17;102307.16;;;21.34;62.86
5651;BME280;40241;52.684;9.758;2023-06-24T07:23:42;102289.31;;;21.37;62.37
5651;BME280;40241;52.684;9.758;2023-06-24T07:26:07;102293.56;;;21.44;62.17
5651;BME280;40241;52.684;9.758;2023-06-24T07:28:33;102300.59;;;21.50;62.19
5651;BME280;40241;52.684;9.758;2023-06-24T07:30:58;102303.53;;;21.58;61.88
5651;BME280;40241;52.684;9.758;2023-06-24T07:33:23;102309.41;;;21.60;61.67
5651;BME280;40241;52.684;9.758;2023-06-24T07:35:49;102293.03;;;21.64;61.43
5651;BME280;40241;52.684;9.758;2023-06-24T07:38:14;102293.72;;;21.70;61.47
5651;BME280;40241;52.684;9.758;2023-06-24T07:40:40;102293.31;;;21.79;61.49
5651;BME280;40241;52.684;9.758;2023-06-24T07:43:05;102292.22;;;21.88;61.09
5651;BME280;40241;52.684;9.758;2023-06-24T07:45:30;102299.56;;;21.91;61.17
5651;BME280;40241;52.684;9.758;2023-06-24T07:47:56;102291.50;;;22.00;60.97
5651;BME280;40241;52.684;9.758;2023-06-24T07:50:21;102298.00;;;22.08;60.75
5651;BME280;40241;52.684;9.758;2023-06-24T07:52:46;102297.69;;;22.12;60.61
5651;BME280;40241;52.684;9.758;2023-06-24T07:55:12;102294.06;;;22.17;60.29
5651;BME280;40241;52.684;9.758;2023-06-24T07:57:37;102288.13;;;22.20;60.03
5651;BME280;40241;52.684;9.758;2023-06-24T08:00:03;102307.34;;;22.29;59.79
5651;BME280;40241;52.684;9.758;2023-06-24T08:02:34;102301.13;;;22.36;59.70
5651;BME280;40241;52.684;9.758;2023-06-24T08:04:59;102301.69;;;22.48;59.15
5651;BME280;40241;52.684;9.758;2023-06-24T08:07:25;102313.03;;;22.56;58.81
5651;BME280;40241;52.684;9.758;2023-06-24T08:09:50;102304.22;;;22.65;58.99
5651;BME280;40241;52.684;9.758;2023-06-24T08:12:15;102303.56;;;22.72;58.20
5651;BME280;40241;52.684;9.758;2023-06-24T08:14:40;102293.44;;;22.82;57.96
5651;BME280;40241;52.684;9.758;2023-06-24T08:17:06;102287.19;;;22.89;57.90
5651;BME280;40241;52.684;9.758;2023-06-24T08:19:31;102297.25;;;22.97;57.69
5651;BME280;40241;52.684;9.758;2023-06-24T08:21:57;102292.06;;;23.01;57.47
5651;BME280;40241;52.684;9.758;2023-06-24T08:24:22;102332.56;;;23.06;57.25
5651;BME280;40241;52.684;9.758;2023-06-24T08:27:06;102296.91;;;23.14;56.32
5651;BME280;40241;52.684;9.758;2023-06-24T08:35:58;102294.50;;;23.18;54.29
5651;BME280;40241;52.684;9.758;2023-06-24T08:38:24;102301.66;;;23.19;57.14
5651;BME280;40241;52.684;9.758;2023-06-24T08:40:49;102293.09;;;23.25;56.98
5651;BME280;40241;52.684;9.758;2023-06-24T08:43:15;102296.69;;;23.38;56.93
5651;BME280;40241;52.684;9.758;2023-06-24T08:45:40;102288.22;;;23.51;56.68
5651;BME280;40241;52.684;9.758;2023-06-24T08:48:05;102301.47;;;23.64;56.71
5651;BME280;40241;52.684;9.758;2023-06-24T08:50:35;102284.91;;;23.73;56.60
5651;BME280;40241;52.684;9.758;2023-06-24T08:53:03;102288.34;;;23.79;56.25
5651;BME280;40241;52.684;9.758;2023-06-24T08:55:32;102280.94;;;23.90;56.12
5651;BME280;40241;52.684;9.758;2023-06-24T08:58:02;102291.41;;;24.02;55.96
5651;BME280;40241;52.684;9.758;2023-06-24T09:00:27;102280.81;;;24.08;55.58
5651;BME280;40241;52.684;9.758;2023-06-24T09:02:53;102269.28;;;24.19;55.76
5651;BME280;40241;52.684;9.758;2023-06-24T09:05:18;102276.13;;;24.31;55.40
5651;BME280;40241;52.684;9.758;2023-06-24T09:07:44;102273.03;;;24.42;55.30
5651;BME280;40241;52.684;9.758;2023-06-24T09:10:09;102270.84;;;24.48;55.24
5651;BME280;40241;52.684;9.758;2023-06-24T09:12:35;102278.34;;;24.53;55.02
5651;BME280;40241;52.684;9.758;2023-06-24T09:15:00;102273.69;;;24.56;54.82
5651;BME280;40241;52.684;9.758;2023-06-24T09:17:27;102265.13;;;24.62;54.73
5651;BME280;40241;52.684;9.758;2023-06-24T09:19:53;102268.78;;;24.77;54.19
5651;BME280;40241;52.684;9.758;2023-06-24T09:22:19;102257.22;;;24.88;54.26
5651;BME280;40241;52.684;9.758;2023-06-24T09:24:46;102263.50;;;25.02;53.78
5651;BME280;40241;52.684;9.758;2023-06-24T09:27:13;102259.78;;;25.14;54.08
5651;BME280;40241;52.684;9.758;2023-06-24T09:29:40;102245.75;;;25.29;53.44
5651;BME280;40241;52.684;9.758;2023-06-24T09:32:07;102260.69;;;25.45;53.46
5651;BME280;40241;52.684;9.758;2023-06-24T09:34:32;102269.75;;;25.59;53.33
5651;BME280;40241;52.684;9.758;2023-06-24T09:36:58;102265.09;;;25.76;52.87
5651;BME280;40241;52.684;9.758;2023-06-24T09:39:25;102256.47;;;25.89;52.90
5651;BME280;40241;52.684;9.758;2023-06-24T09:41:59;102254.59;;;25.92;52.58
5651;BME280;40241;52.684;9.758;2023-06-24T09:44:26;102265.31;;;25.93;52.47
5651;BME280;40241;52.684;9.758;2023-06-24T09:46:55;102256.84;;;25.93;52.26
5651;BME280;40241;52.684;9.758;2023-06-24T09:49:24;102270.78;;;25.99;52.37
5651;BME280;40241;52.684;9.758;2023-06-24T09:51:56;102252.38;;;26.13;51.63
5651;BME280;40241;52.684;9.758;2023-06-24T09:54:26;102251.63;;;26.28;51.97
5651;BME280;40241;52.684;9.758;2023-06-24T09:56:54;102239.75;;;26.37;51.67
5651;BME280;40241;52.684;9.758;2023-06-24T09:59:20;102244.66;;;26.44;51.34
5651;BME280;40241;52.684;9.758;2023-06-24T10:01:47;102268.75;;;26.37;51.24
5651;BME280;40241;52.684;9.758;2023-06-24T10:04:16;102245.19;;;26.50;50.70
5651;BME280;40241;52.684;9.758;2023-06-24T10:06:42;102247.66;;;26.53;50.97
5651;BME280;40241;52.684;9.758;2023-06-24T10:09:08;102237.09;;;26.61;51.19
5651;BME280;40241;52.684;9.758;2023-06-24T10:11:33;102230.69;;;26.68;50.55
5651;BME280;40241;52.684;9.758;2023-06-24T10:13:59;102243.31;;;26.75;50.54
5651;BME280;40241;52.684;9.758;2023-06-24T10:16:25;102228.03;;;26.86;50.17
5651;BME280;40241;52.684;9.758;2023-06-24T10:18:50;102237.03;;;26.92;50.16
5651;BME280;40241;52.684;9.758;2023-06-24T10:21:16;102216.50;;;26.99;50.28
5651;BME280;40241;52.684;9.758;2023-06-24T10:26:27;102213.06;;;27.08;48.47
5651;BME280;40241;52.684;9.758;2023-06-24T10:37:13;102206.41;;;27.20;49.13
5651;BME280;40241;52.684;9.758;2023-06-24T10:39:53;102210.34;;;27.25;48.24
5651;BME280;40241;52.684;9.758;2023-06-24T10:45:01;102202.56;;;27.40;47.99
5651;BME280;40241;52.684;9.758;2023-06-24T10:47:28;102193.72;;;27.36;48.17
5651;BME280;40241;52.684;9.758;2023-06-24T10:49:54;102197.50;;;27.39;48.54
5651;BME280;40241;52.684;9.758;2023-06-24T10:52:22;102185.72;;;27.50;48.52
5651;BME280;40241;52.684;9.758;2023-06-24T10:54:48;102180.34;;;27.62;48.10
5651;BME280;40241;52.684;9.758;2023-06-24T10:57:15;102186.78;;;27.62;47.98
5651;BME280;40241;52.684;9.758;2023-06-24T10:59:41;102175.03;;;27.66;47.78
5651;BME280;40241;52.684;9.758;2023-06-24T11:02:13;102175.34;;;27.77;46.80
5651;BME280;40241;52.684;9.758;2023-06-24T11:04:46;102172.97;;;27.91;47.30
5651;BME280;40241;52.684;9.758;2023-06-24T11:07:12;102187.25;;;28.00;47.31
5651;BME280;40241;52.684;9.758;2023-06-24T11:09:38;102173.63;;;28.06;47.60
5651;BME280;40241;52.684;9.758;2023-06-24T11:12:03;102177.13;;;28.14;47.31
5651;BME280;40241;52.684;9.758;2023-06-24T11:14:29;102159.53;;;28.16;46.89
5651;BME280;40241;52.684;9.758;2023-06-24T11:16:54;102154.97;;;28.20;46.92
5651;BME280;40241;52.684;9.758;2023-06-24T11:19:19;102152.72;;;28.19;47.02
5651;BME280;40241;52.684;9.758;2023-06-24T11:21:45;102154.16;;;28.28;46.78
5651;BME280;40241;52.684;9.758;2023-06-24T11:24:10;102158.66;;;28.31;46.59
5651;BME280;40241;52.684;9.758;2023-06-24T11:26:36;102158.25;;;28.34;46.41
5651;BME280;40241;52.684;9.758;2023-06-24T11:29:09;102155.25;;;28.32;45.24
5651;BME280;40241;52.684;9.758;2023-06-24T11:31:35;102157.47;;;28.34;46.15
5651;BME280;40241;52.684;9.758;2023-06-24T11:34:00;102163.31;;;28.36;46.15
5651;BME280;40241;52.684;9.758;2023-06-24T11:36:26;102171.41;;;28.39;46.18
5651;BME280;40241;52.684;9.758;2023-06-24T11:38:51;102157.00;;;28.45;46.23
5651;BME280;40241;52.684;9.758;2023-06-24T11:41:23;102154.81;;;28.53;45.66
5651;BME280;40241;52.684;9.758;2023-06-24T11:43:51;102166.84;;;28.61;45.73
5651;BME280;40241;52.684;9.758;2023-06-24T11:46:29;102142.91;;;28.71;45.02
5651;BME280;40241;52.684;9.758;2023-06-24T11:51:30;102150.06;;;28.89;45.25
5651;BME280;40241;52.684;9.758;2023-06-24T11:53:59;102148.72;;;28.90;44.99
5651;BME280;40241;52.684;9.758;2023-06-24T11:56:38;102144.88;;;28.96;44.40
5651;BME280;40241;52.684;9.758;2023-06-24T11:59:05;102145.09;;;29.07;44.83
5651;BME280;40241;52.684;9.758;2023-06-24T12:01:31;102152.16;;;29.16;44.84
5651;BME280;40241;52.684;9.758;2023-06-24T12:03:57;102146.09;;;29.19;44.67
5651;BME280;40241;52.684;9.758;2023-06-24T12:06:22;102129.97;;;29.22;44.48
5651;BME280;40241;52.684;9.758;2023-06-24T12:08:47;102127.81;;;29.39;44.42
5651;BME280;40241;52.684;9.758;2023-06-24T12:11:13;102133.97;;;29.45;44.60
5651;BME280;40241;52.684;9.758;2023-06-24T12:13:38;102182.78;;;29.44;44.13
5651;BME280;40241;52.684;9.758;2023-06-24T12:16:03;102130.44;;;29.28;44.40
5651;BME280;40241;52.684;9.758;2023-06-24T12:18:29;102135.34;;;29.18;44.00
5651;BME280;40241;52.684;9.758;2023-06-24T12:20:54;102124.91;;;29.20;43.97
5651;BME280;40241;52.684;9.758;2023-06-24T12:23:21;102131.81;;;29.10;43.98
5651;BME280;40241;52.684;9.758;2023-06-24T12:25:46;102119.47;;;29.15;43.81
5651;BME280;40241;52.684;9.758;2023-06-24T12:28:11;102131.56;;;29.15;44.01
5651;BME280;40241;52.684;9.758;2023-06-24T12:30:37;102117.22;;;29.13;43.74
5651;BME280;40241;52.684;9.758;2023-06-24T12:33:02;102129.13;;;29.29;44.08
5651;BME280;40241;52.684;9.758;2023-06-24T12:35:28;102127.47;;;29.26;43.57
5651;BME280;40241;52.684;9.758;2023-06-24T12:37:54;102119.97;;;29.21;43.69
5651;BME280;40241;52.684;9.758;2023-06-24T12:40:20;102124.38;;;29.14;43.94
5651;BME280;40241;52.684;9.758;2023-06-24T12:42:45;102116.41;;;29.20;43.50
5651;BME280;40241;52.684;9.758;2023-06-24T12:45:10;102120.22;;;29.15;43.83
5651;BME280;40241;52.684;9.758;2023-06-24T12:47:36;102115.84;;;29.05;43.01
5651;BME280;40241;52.684;9.758;2023-06-24T12:50:01;102112.63;;;28.91;43.52
5651;BME280;40241;52.684;9.758;2023-06-24T12:52:31;102119.13;;;28.84;43.36
5651;BME280;40241;52.684;9.758;2023-06-24T12:54:56;102114.66;;;28.81;43.63
5651;BME280;40241;52.684;9.758;2023-06-24T12:57:22;102116.91;;;28.82;44.17
5651;BME280;40241;52.684;9.758;2023-06-24T12:59:47;102127.97;;;28.88;43.45
5651;BME280;40241;52.684;9.758;2023-06-24T13:02:12;102111.88;;;28.90;43.66
5651;BME280;40241;52.684;9.758;2023-06-24T13:04:38;102114.19;;;29.02;43.63
5651;BME280;40241;52.684;9.758;2023-06-24T13:07:03;102121.94;;;29.01;43.09
5651;BME280;40241;52.684;9.758;2023-06-24T13:09:30;102108.44;;;28.92;43.57
5651;BME280;40241;52.684;9.758;2023-06-24T13:11:55;102110.13;;;28.95;42.96
5651;BME280;40241;52.684;9.758;2023-06-24T13:14:20;102106.03;;;28.88;43.04
5651;BME280;40241;52.684;9.758;2023-06-24T13:16:46;102102.38;;;28.96;43.01
5651;BME280;40241;52.684;9.758;2023-06-24T13:19:11;102095.41;;;29.06;42.83
5651;BME280;40241;52.684;9.758;2023-06-24T13:21:37;102106.69;;;29.23;42.92
5651;BME280;40241;52.684;9.758;2023-06-24T13:24:03;102106.47;;;29.38;41.93
5651;BME280;40241;52.684;9.758;2023-06-24T13:26:28;102110.09;;;29.48;41.85
5651;BME280;40241;52.684;9.758;2023-06-24T13:28:54;102102.66;;;29.53;41.73
5651;BME280;40241;52.684;9.758;2023-06-24T13:31:20;102103.13;;;29.68;41.01